createdAt,value
2018-03-06T00:02:20.428Z,13.32
2018-03-06T00:04:48.474Z,12.20
2018-03-06T00:07:16.543Z,12.95
2018-03-06T00:09:44.615Z,12.90
2018-03-06T00:12:13.763Z,13.20
2018-03-06T00:14:41.807Z,14.43
2018-03-06T00:17:09.878Z,12.25
2018-03-06T00:19:37.968Z,13.45
2018-03-06T00:22:06.038Z,14.10
2018-03-06T00:24:34.063Z,14.80
2018-03-06T00:27:02.106Z,17.05
2018-03-06T00:29:30.199Z,16.45
2018-03-06T00:31:58.258Z,15.52
2018-03-06T00:34:26.315Z,16.33
2018-03-06T00:36:54.378Z,16.83
2018-03-06T00:39:22.412Z,17.98
2018-03-06T00:41:50.439Z,18.10
2018-03-06T00:44:18.470Z,20.02
2018-03-06T00:46:46.523Z,16.85
2018-03-06T00:49:14.550Z,18.02
2018-03-06T00:51:42.610Z,19.30
2018-03-06T00:54:10.718Z,19.35
2018-03-06T00:56:38.770Z,20.95
2018-03-06T00:59:06.887Z,19.95
2018-03-06T01:01:34.908Z,19.55
2018-03-06T01:04:02.970Z,20.40
2018-03-06T01:06:31.015Z,19.50
2018-03-06T01:08:59.062Z,20.40
2018-03-06T01:11:27.102Z,16.58
2018-03-06T01:13:56.158Z,20.42
2018-03-06T01:16:24.249Z,18.20
2018-03-06T01:18:52.310Z,19.67
2018-03-06T01:21:20.367Z,18.33
2018-03-06T01:23:48.451Z,15.60
2018-03-06T01:26:16.506Z,18.27
2018-03-06T01:28:44.582Z,18.23
2018-03-06T01:31:12.655Z,17.77
2018-03-06T01:33:40.694Z,18.05
2018-03-06T01:36:08.747Z,18.27
2018-03-06T01:38:36.833Z,17.60
2018-03-06T01:41:04.943Z,18.52
2018-03-06T01:43:33.023Z,18.12
2018-03-06T01:46:01.070Z,16.95
2018-03-06T01:48:30.211Z,14.87
2018-03-06T01:50:58.314Z,17.42
2018-03-06T01:53:26.417Z,17.92
2018-03-06T01:55:54.473Z,18.17
2018-03-06T01:58:22.527Z,17.00
2018-03-06T02:00:50.576Z,16.42
2018-03-06T02:03:18.614Z,17.15
2018-03-06T02:05:46.676Z,18.92
2018-03-06T02:08:14.738Z,19.65
2018-03-06T02:10:42.803Z,17.65
2018-03-06T02:13:10.871Z,18.08
2018-03-06T02:15:38.895Z,18.80
2018-03-06T02:18:08.012Z,18.37
2018-03-06T02:20:36.081Z,17.50
2018-03-06T02:23:04.110Z,18.50
2018-03-06T02:25:32.134Z,19.48
2018-03-06T02:28:00.172Z,19.42
2018-03-06T02:30:28.228Z,18.12
2018-03-06T02:32:56.246Z,17.80
2018-03-06T02:35:24.294Z,18.30
2018-03-06T02:37:52.356Z,18.12
2018-03-06T02:40:20.423Z,19.15
2018-03-06T02:42:48.472Z,17.73
2018-03-06T02:45:16.522Z,17.92
2018-03-06T02:47:44.578Z,20.37
2018-03-06T02:50:12.659Z,20.85
2018-03-06T02:52:40.703Z,20.90
2018-03-06T02:55:08.760Z,19.67
2018-03-06T02:57:36.847Z,17.62
2018-03-06T03:00:05.104Z,20.85
2018-03-06T03:02:33.154Z,20.80
2018-03-06T03:05:01.252Z,20.17
2018-03-06T03:07:29.323Z,18.75
2018-03-06T03:09:57.330Z,18.60
2018-03-06T03:12:25.433Z,19.50
2018-03-06T03:14:53.454Z,21.95
2018-03-06T03:17:21.486Z,18.67
2018-03-06T03:19:49.506Z,19.05
2018-03-06T03:22:17.523Z,21.25
2018-03-06T03:24:45.603Z,19.70
2018-03-06T03:27:13.710Z,17.08
2018-03-06T03:29:41.807Z,20.00
2018-03-06T03:32:09.868Z,21.12
2018-03-06T03:34:37.942Z,20.60
2018-03-06T03:37:05.982Z,19.27
2018-03-06T03:39:34.046Z,20.52
2018-03-06T03:42:02.166Z,20.37
2018-03-06T03:44:30.267Z,19.95
2018-03-06T03:46:58.361Z,17.35
2018-03-06T03:49:26.490Z,20.30
2018-03-06T03:51:54.550Z,18.77
2018-03-06T03:54:22.587Z,21.10
2018-03-06T03:56:50.634Z,21.20
2018-03-06T03:59:18.686Z,18.12
2018-03-06T04:01:46.711Z,20.75
2018-03-06T04:04:14.854Z,23.27
2018-03-06T04:06:42.882Z,20.33
2018-03-06T04:09:10.982Z,21.25
2018-03-06T04:11:39.042Z,20.55
2018-03-06T04:14:07.059Z,21.90
2018-03-06T04:16:35.110Z,18.95
2018-03-06T04:19:03.188Z,21.25
2018-03-06T04:21:31.227Z,19.00
2018-03-06T04:23:59.295Z,20.30
2018-03-06T04:26:27.374Z,19.65
2018-03-06T04:28:55.426Z,21.55
2018-03-06T04:31:23.474Z,21.40
2018-03-06T04:33:51.538Z,21.62
2018-03-06T04:36:19.575Z,23.55
2018-03-06T04:38:47.589Z,20.75
2018-03-06T04:41:15.672Z,21.80
2018-03-06T04:43:43.725Z,20.55
2018-03-06T04:46:11.738Z,20.33
2018-03-06T04:48:39.820Z,22.83
2018-03-06T04:51:07.918Z,21.87
2018-03-06T04:53:36.013Z,19.58
2018-03-06T04:56:04.086Z,22.52
2018-03-06T04:58:32.134Z,19.50
2018-03-06T05:01:00.197Z,21.70
2018-03-06T05:03:28.289Z,23.73
2018-03-06T05:05:56.359Z,23.12
2018-03-06T05:08:24.403Z,22.85
2018-03-06T05:10:52.447Z,22.00
2018-03-06T05:13:20.500Z,23.62
2018-03-06T05:15:48.608Z,22.30
2018-03-06T05:18:16.639Z,22.10
2018-03-06T05:20:44.688Z,22.65
2018-03-06T05:23:12.736Z,25.45
2018-03-06T05:25:40.779Z,22.73
2018-03-06T05:28:08.859Z,22.80
2018-03-06T05:30:36.926Z,22.45
2018-03-06T05:33:04.983Z,26.40
2018-03-06T05:35:33.050Z,22.08
2018-03-06T05:38:01.128Z,21.87
2018-03-06T05:40:29.186Z,26.02
2018-03-06T05:42:57.222Z,21.30
2018-03-06T05:45:25.286Z,21.95
2018-03-06T05:47:53.342Z,21.87
2018-03-06T05:50:21.378Z,25.80
2018-03-06T05:52:49.439Z,24.45
2018-03-06T05:55:17.525Z,24.15
2018-03-06T05:57:45.570Z,23.67
2018-03-06T06:00:13.626Z,23.95
2018-03-06T06:02:41.718Z,23.42
2018-03-06T06:05:09.828Z,22.75
2018-03-06T06:07:37.906Z,24.92
2018-03-06T06:10:06.974Z,24.75
2018-03-06T06:12:35.018Z,21.65
2018-03-06T06:15:03.090Z,26.67
2018-03-06T06:17:31.139Z,20.50
2018-03-06T06:19:59.194Z,24.00
2018-03-06T06:22:27.295Z,21.85
2018-03-06T06:24:55.343Z,22.80
2018-03-06T06:27:23.390Z,25.62
2018-03-06T06:29:51.430Z,24.08
2018-03-06T06:32:19.459Z,23.23
2018-03-06T06:34:47.482Z,24.42
2018-03-06T06:37:15.519Z,23.25
2018-03-06T06:39:43.599Z,25.92
2018-03-06T06:42:11.646Z,25.33
2018-03-06T06:44:39.686Z,26.98
2018-03-06T06:47:07.964Z,24.92
2018-03-06T06:49:36.050Z,27.48
2018-03-06T06:52:04.114Z,25.42
2018-03-06T06:54:32.115Z,25.12
2018-03-06T06:57:00.115Z,27.35
2018-03-06T06:59:28.155Z,26.35
2018-03-06T07:01:56.202Z,25.52
2018-03-06T07:04:24.268Z,24.60
2018-03-06T07:06:52.295Z,26.05
2018-03-06T07:09:20.324Z,25.33
2018-03-06T07:11:49.359Z,24.55
2018-03-06T07:14:17.418Z,26.37
2018-03-06T07:16:45.472Z,28.87
2018-03-06T07:19:13.538Z,25.23
2018-03-06T07:21:41.554Z,25.98
2018-03-06T07:24:09.650Z,28.35
2018-03-06T07:26:37.809Z,26.02
2018-03-06T07:31:39.594Z,30.40
2018-03-06T07:34:07.611Z,30.60
2018-03-06T07:36:35.700Z,29.87
2018-03-06T07:39:03.765Z,28.45
2018-03-06T07:41:31.842Z,31.17
2018-03-06T07:43:59.895Z,31.87
2018-03-06T07:46:27.949Z,28.08
2018-03-06T07:48:56.001Z,29.58
2018-03-06T07:51:24.030Z,31.62
2018-03-06T07:53:52.103Z,31.45
2018-03-06T07:56:20.178Z,32.13
2018-03-06T07:58:48.262Z,27.37
2018-03-06T08:01:16.379Z,31.27
2018-03-06T08:03:44.472Z,29.58
2018-03-06T08:06:12.511Z,33.70
2018-03-06T08:08:40.566Z,29.95
2018-03-06T08:11:08.659Z,29.75
2018-03-06T08:13:36.694Z,30.85
2018-03-06T08:16:04.739Z,30.40
2018-03-06T08:18:32.990Z,33.75
2018-03-06T08:21:00.900Z,33.35
2018-03-06T08:23:28.914Z,32.65
2018-03-06T08:25:57.051Z,32.97
2018-03-06T08:28:25.082Z,34.55
2018-03-06T08:30:53.111Z,31.80
2018-03-06T08:33:22.223Z,33.80
2018-03-06T08:35:50.254Z,35.05
2018-03-06T08:38:18.309Z,35.08
2018-03-06T08:40:46.342Z,33.00
2018-03-06T08:43:14.398Z,34.22
2018-03-06T08:45:42.467Z,32.88
2018-03-06T08:48:10.523Z,31.30
2018-03-06T08:50:38.526Z,32.55
2018-03-06T08:53:06.545Z,33.03
2018-03-06T08:55:34.627Z,34.33
2018-03-06T08:58:02.686Z,34.13
2018-03-06T09:00:30.722Z,34.60
2018-03-06T09:02:58.770Z,33.97
2018-03-06T09:05:26.798Z,33.83
2018-03-06T09:07:54.830Z,34.00
2018-03-06T09:10:22.878Z,37.40
2018-03-06T09:12:50.910Z,35.47
2018-03-06T09:15:18.973Z,38.30
2018-03-06T09:17:47.039Z,35.30
2018-03-06T09:20:16.154Z,36.80
2018-03-06T09:22:44.151Z,38.57
2018-03-06T09:25:12.267Z,37.03
2018-03-06T09:27:40.313Z,38.30
2018-03-06T09:30:08.350Z,38.57
2018-03-06T09:32:36.363Z,37.30
2018-03-06T09:35:04.403Z,38.30
2018-03-06T09:37:32.446Z,35.90
2018-03-06T09:40:00.507Z,35.27
2018-03-06T09:42:28.531Z,36.10
2018-03-06T09:44:56.931Z,38.20
2018-03-06T09:47:24.926Z,37.13
2018-03-06T09:49:52.934Z,38.13
2018-03-06T09:52:21.044Z,38.07
2018-03-06T09:54:49.088Z,37.27
2018-03-06T09:57:17.078Z,38.40
2018-03-06T09:59:45.176Z,38.08
2018-03-06T10:02:13.214Z,36.72
2018-03-06T10:04:41.282Z,37.75
2018-03-06T10:07:09.323Z,37.38
2018-03-06T10:09:37.342Z,36.30
2018-03-06T10:12:05.378Z,36.10
2018-03-06T10:14:33.475Z,35.45
2018-03-06T10:17:01.512Z,37.22
2018-03-06T10:19:29.543Z,37.33
2018-03-06T10:21:57.760Z,36.60
2018-03-06T10:24:25.836Z,38.58
2018-03-06T10:26:53.892Z,35.10
2018-03-06T10:29:21.986Z,35.67
2018-03-06T10:31:50.063Z,36.67
2018-03-06T10:34:18.081Z,35.13
2018-03-06T10:36:46.139Z,36.67
2018-03-06T10:39:14.163Z,37.03
2018-03-06T10:41:42.172Z,37.63
2018-03-06T10:44:10.214Z,33.60
2018-03-06T10:46:38.230Z,35.30
2018-03-06T10:49:06.290Z,34.58
2018-03-06T10:51:34.355Z,36.33
2018-03-06T10:54:03.419Z,35.53
2018-03-06T10:56:31.498Z,34.07
2018-03-06T10:58:59.535Z,34.20
2018-03-06T11:01:32.404Z,32.78
2018-03-06T11:04:00.447Z,36.88
2018-03-06T11:06:28.538Z,36.37
2018-03-06T11:08:56.551Z,37.47
2018-03-06T11:11:24.619Z,35.13
2018-03-06T11:13:52.682Z,35.20
2018-03-06T11:16:20.778Z,34.60
2018-03-06T11:18:48.899Z,35.43
2018-03-06T11:21:16.915Z,35.23
2018-03-06T11:23:44.983Z,33.80
2018-03-06T11:26:13.072Z,35.03
2018-03-06T11:28:41.125Z,36.80
2018-03-06T11:31:09.199Z,37.57
2018-03-06T11:33:37.278Z,33.87
2018-03-06T11:36:06.419Z,35.20
2018-03-06T11:38:34.480Z,35.70
2018-03-06T11:41:02.579Z,34.83
2018-03-06T11:43:30.658Z,36.40
2018-03-06T11:45:58.679Z,35.73
2018-03-06T11:48:26.790Z,37.20
2018-03-06T11:50:54.838Z,36.30
2018-03-06T11:53:22.888Z,37.13
2018-03-06T11:55:50.959Z,35.57
2018-03-06T11:58:18.966Z,35.73
2018-03-06T12:00:48.091Z,37.47
2018-03-06T12:03:16.154Z,37.30
2018-03-06T12:05:44.203Z,40.67
2018-03-06T12:08:12.260Z,37.27
2018-03-06T12:10:40.342Z,37.50
2018-03-06T12:13:08.388Z,38.10
2018-03-06T12:15:36.395Z,38.37
2018-03-06T12:18:04.394Z,39.73
2018-03-06T12:20:32.324Z,38.70
2018-03-06T12:23:00.255Z,39.40
2018-03-06T12:25:29.285Z,37.17
2018-03-06T12:27:57.214Z,38.43
2018-03-06T12:30:25.146Z,37.60
2018-03-06T12:32:53.109Z,35.93
2018-03-06T12:35:21.058Z,39.83
2018-03-06T12:37:48.994Z,38.03
2018-03-06T12:40:17.989Z,40.50
2018-03-06T12:42:45.911Z,38.80
2018-03-06T12:45:13.834Z,36.30
2018-03-06T12:47:41.785Z,37.37
2018-03-06T12:50:09.733Z,36.93
2018-03-06T12:52:37.673Z,36.93
2018-03-06T12:55:05.621Z,36.50
2018-03-06T12:57:33.541Z,38.07
2018-03-06T13:00:01.474Z,36.23
2018-03-06T13:02:29.422Z,36.03
2018-03-06T13:04:57.352Z,35.63
2018-03-06T13:07:25.282Z,34.53
2018-03-06T13:09:53.258Z,34.90
2018-03-06T13:12:21.181Z,36.30
2018-03-06T13:14:49.111Z,33.57
2018-03-06T13:17:17.075Z,33.23
2018-03-06T13:19:45.005Z,33.53
2018-03-06T13:22:12.934Z,35.00
2018-03-06T13:24:40.893Z,32.50
2018-03-06T13:27:08.836Z,33.30
2018-03-06T13:29:37.795Z,33.27
2018-03-06T13:32:05.762Z,32.60
2018-03-06T13:34:33.689Z,36.33
2018-03-06T13:37:01.615Z,35.80
2018-03-06T13:39:29.567Z,35.30
2018-03-06T13:41:57.517Z,35.57
2018-03-06T13:44:25.450Z,35.10
2018-03-06T13:46:53.408Z,36.23
2018-03-06T13:49:21.350Z,33.77
2018-03-06T13:51:49.434Z,32.57
2018-03-06T13:54:17.381Z,34.40
2018-03-06T13:56:45.302Z,35.90
2018-03-06T13:59:13.233Z,33.50
2018-03-06T14:01:41.182Z,34.50
2018-03-06T14:04:09.113Z,36.10
2018-03-06T14:06:37.054Z,33.80
2018-03-06T14:09:06.122Z,29.77
2018-03-06T14:11:34.065Z,33.03
2018-03-06T14:14:02.015Z,33.87
2018-03-06T14:16:30.010Z,33.87
2018-03-06T14:18:57.954Z,33.20
2018-03-06T14:21:25.903Z,33.10
2018-03-06T14:23:53.989Z,33.43
2018-03-06T14:26:21.925Z,32.03
2018-03-06T14:28:50.962Z,33.03
2018-03-06T14:31:18.947Z,31.43
2018-03-06T14:33:46.890Z,33.40
2018-03-06T14:36:14.837Z,32.10
2018-03-06T14:38:42.773Z,31.30
2018-03-06T14:41:10.698Z,33.50
2018-03-06T14:43:38.659Z,32.63
2018-03-06T14:46:06.601Z,33.40
2018-03-06T14:48:34.529Z,32.40
2018-03-06T14:51:02.498Z,31.53
2018-03-06T14:53:30.453Z,31.63
2018-03-06T14:55:58.398Z,29.43
2018-03-06T14:58:26.329Z,30.93
2018-03-06T15:00:54.290Z,31.20
2018-03-06T15:03:22.241Z,32.17
2018-03-06T15:05:50.167Z,34.00
2018-03-06T15:08:18.110Z,29.77
2018-03-06T15:10:46.038Z,32.20
2018-03-06T15:13:13.980Z,30.87
2018-03-06T15:15:41.979Z,31.20
2018-03-06T15:18:09.970Z,32.33
2018-03-06T15:20:37.901Z,33.80
2018-03-06T15:23:05.862Z,33.10
2018-03-06T15:25:33.805Z,31.40
2018-03-06T15:28:01.890Z,33.70
2018-03-06T15:30:29.869Z,32.27
2018-03-06T15:32:57.806Z,31.30
2018-03-06T15:35:25.734Z,31.67
2018-03-06T15:37:53.688Z,33.00
2018-03-06T15:40:21.655Z,31.37
2018-03-06T15:42:49.666Z,31.13
2018-03-06T15:45:17.634Z,31.90
2018-03-06T15:47:45.629Z,31.40
2018-03-06T15:50:13.623Z,31.40
2018-03-06T15:52:41.622Z,32.33
2018-03-06T15:55:09.614Z,32.33
2018-03-06T15:57:37.614Z,32.77
2018-03-06T16:00:05.611Z,32.83
2018-03-06T16:02:34.598Z,32.30
2018-03-06T16:05:02.611Z,33.40
2018-03-06T16:07:30.667Z,34.80
2018-03-06T16:09:58.650Z,31.80
2018-03-06T16:12:26.651Z,34.30
2018-03-06T16:14:55.739Z,34.57
2018-03-06T16:17:23.706Z,30.40
2018-03-06T16:19:51.694Z,35.97
2018-03-06T16:22:19.682Z,33.00
2018-03-06T16:24:47.651Z,36.70
2018-03-06T16:27:15.638Z,33.03
2018-03-06T16:29:43.671Z,32.40
2018-03-06T16:32:11.654Z,29.63
2018-03-06T16:34:40.747Z,32.40
2018-03-06T16:37:08.743Z,35.17
2018-03-06T16:39:36.713Z,29.97
2018-03-06T16:42:04.720Z,35.23
2018-03-06T16:44:32.703Z,34.37
2018-03-06T16:47:00.702Z,30.92
2018-03-06T16:49:28.754Z,28.65
2018-03-06T16:51:56.866Z,32.53
2018-03-06T16:54:24.864Z,32.05
2018-03-06T16:56:53.718Z,31.90
2018-03-06T16:59:21.714Z,32.35
2018-03-06T17:01:49.683Z,28.27
2018-03-06T17:04:17.685Z,32.28
2018-03-06T17:06:45.673Z,31.20
2018-03-06T17:09:15.727Z,28.87
2018-03-06T17:11:43.738Z,32.58
2018-03-06T17:14:12.451Z,30.60
2018-03-06T17:16:40.419Z,30.02
2018-03-06T17:19:08.427Z,31.90
2018-03-06T17:21:36.426Z,32.20
2018-03-06T17:24:04.398Z,30.37
2018-03-06T17:26:32.390Z,33.88
2018-03-06T17:29:00.400Z,27.95
2018-03-06T17:31:28.579Z,30.12
2018-03-06T17:33:56.724Z,30.55
2018-03-06T17:36:24.847Z,30.73
2018-03-06T17:38:52.915Z,31.35
2018-03-06T17:41:21.057Z,31.95
2018-03-06T17:43:49.267Z,29.83
2018-03-06T17:46:17.263Z,28.60
2018-03-06T17:48:46.410Z,30.55
2018-03-06T17:51:14.518Z,30.73
2018-03-06T17:53:42.643Z,29.85
2018-03-06T17:56:10.734Z,29.87
2018-03-06T17:58:38.850Z,28.52
2018-03-06T18:01:06.940Z,28.83
2018-03-06T18:03:35.018Z,30.48
2018-03-06T18:06:03.116Z,28.85
2018-03-06T18:08:33.311Z,29.23
2018-03-06T18:11:01.384Z,28.95
2018-03-06T18:13:29.524Z,28.52
2018-03-06T18:15:57.599Z,28.48
2018-03-06T18:18:25.671Z,27.77
2018-03-06T18:20:53.841Z,29.60
2018-03-06T18:23:23.007Z,31.40
2018-03-06T18:25:51.065Z,27.23
2018-03-06T18:28:19.187Z,29.42
2018-03-06T18:30:47.273Z,32.15
2018-03-06T18:33:15.328Z,29.25
2018-03-06T18:35:43.448Z,32.42
2018-03-06T18:38:11.509Z,28.92
2018-03-06T18:40:39.617Z,31.12
2018-03-06T18:43:07.768Z,29.48
2018-03-06T18:45:35.821Z,31.20
2018-03-06T18:48:04.494Z,30.25
2018-03-06T18:50:38.841Z,28.80
2018-03-06T18:53:06.896Z,27.23
2018-03-06T18:55:34.979Z,28.83
2018-03-06T18:58:03.112Z,29.20
2018-03-06T19:00:51.991Z,29.98
2018-03-06T19:03:26.164Z,28.38
2018-03-06T19:06:05.261Z,29.42
2018-03-06T19:08:33.398Z,28.90
2018-03-06T19:11:01.472Z,30.35
2018-03-06T19:13:29.548Z,29.52
2018-03-06T19:15:57.651Z,28.73
2018-03-06T19:18:25.767Z,27.73
2018-03-06T19:20:53.886Z,29.05
2018-03-06T19:23:22.007Z,27.60
2018-03-06T19:25:50.104Z,31.20
2018-03-06T19:28:18.215Z,28.23
2018-03-06T19:30:46.328Z,30.42
2018-03-06T19:33:14.413Z,30.00
2018-03-06T19:35:42.527Z,28.87
2018-03-06T19:38:10.625Z,31.50
2018-03-06T19:40:38.659Z,29.12
2018-03-06T19:43:07.703Z,28.83
2018-03-06T19:45:35.795Z,26.52
2018-03-06T19:48:03.841Z,30.08
2018-03-06T19:50:31.919Z,27.33
2018-03-06T19:52:59.991Z,30.58
2018-03-06T19:55:28.019Z,28.02
2018-03-06T19:57:56.058Z,30.50
2018-03-06T20:00:24.108Z,30.42
2018-03-06T20:02:52.159Z,32.42
2018-03-06T20:05:20.236Z,27.50
2018-03-06T20:07:48.438Z,29.37
2018-03-06T20:10:16.562Z,29.42
2018-03-06T20:12:44.640Z,29.77
2018-03-06T20:15:17.731Z,30.90
2018-03-06T20:17:45.799Z,26.35
2018-03-06T20:20:13.823Z,30.83
2018-03-06T20:22:41.914Z,29.20
2018-03-06T20:25:15.970Z,29.50
2018-03-06T20:27:44.410Z,31.92
2018-03-06T20:30:12.467Z,29.35
2018-03-06T20:32:46.581Z,28.50
2018-03-06T20:35:14.618Z,29.70
2018-03-06T20:37:42.663Z,28.05
2018-03-06T20:40:16.739Z,26.62
2018-03-06T20:42:44.994Z,29.75
2018-03-06T20:45:13.075Z,28.58
2018-03-06T20:47:41.100Z,27.77
2018-03-06T20:50:09.174Z,27.77
2018-03-06T20:52:43.333Z,29.67
2018-03-06T20:55:11.416Z,27.85
2018-03-06T20:57:39.501Z,30.23
2018-03-06T21:00:07.526Z,28.67
2018-03-06T21:02:35.612Z,29.30
2018-03-06T21:05:03.700Z,29.80
2018-03-06T21:07:31.745Z,27.92
2018-03-06T21:09:59.871Z,32.05
2018-03-06T21:12:27.894Z,28.73
2018-03-06T21:14:55.961Z,29.98
2018-03-06T21:17:24.017Z,30.60
2018-03-06T21:19:52.110Z,31.80
2018-03-06T21:22:20.108Z,29.95
2018-03-06T21:24:48.162Z,31.08
2018-03-06T21:27:16.234Z,27.55
2018-03-06T21:29:44.311Z,32.05
2018-03-06T21:32:12.367Z,31.00
2018-03-06T21:34:40.384Z,29.83
2018-03-06T21:37:08.529Z,32.80
2018-03-06T21:39:36.607Z,28.80
2018-03-06T21:42:04.802Z,29.02
2018-03-06T21:44:32.820Z,29.48
2018-03-06T21:47:00.924Z,30.40
2018-03-06T21:49:29.030Z,29.45
2018-03-06T21:51:57.145Z,29.20
2018-03-06T21:54:25.333Z,29.92
2018-03-06T21:56:53.589Z,30.77
2018-03-06T21:59:21.759Z,28.98
2018-03-06T22:01:49.774Z,28.10
2018-03-06T22:04:17.812Z,24.55
2018-03-06T22:06:45.879Z,30.35
2018-03-06T22:09:13.931Z,30.10
2018-03-06T22:11:41.965Z,31.65
2018-03-06T22:14:10.044Z,33.00
2018-03-06T22:16:38.139Z,29.80
2018-03-06T22:19:06.206Z,27.98
2018-03-06T22:21:34.278Z,28.20
2018-03-06T22:24:02.320Z,30.67
2018-03-06T22:26:30.359Z,28.35
2018-03-06T22:28:58.403Z,28.20
2018-03-06T22:31:26.449Z,29.02
2018-03-06T22:33:54.483Z,29.52
2018-03-06T22:36:22.520Z,28.73
2018-03-06T22:38:50.571Z,28.38
2018-03-06T22:41:18.606Z,28.92
2018-03-06T22:43:46.658Z,26.40
2018-03-06T22:46:14.721Z,24.85
2018-03-06T22:48:42.717Z,27.95
2018-03-06T22:51:10.782Z,27.75
2018-03-06T22:53:38.845Z,26.30
2018-03-06T22:56:06.911Z,24.67
2018-03-06T22:58:34.962Z,25.73
2018-03-06T23:01:03.020Z,27.40
2018-03-06T23:03:31.186Z,25.35
2018-03-06T23:05:59.227Z,26.60
2018-03-06T23:08:27.291Z,24.85
2018-03-06T23:10:55.373Z,25.52
2018-03-06T23:13:23.421Z,24.50
2018-03-06T23:15:51.438Z,24.02
2018-03-06T23:18:19.485Z,23.98
2018-03-06T23:20:47.542Z,21.73
2018-03-06T23:23:15.558Z,25.75
2018-03-06T23:25:43.580Z,25.45
2018-03-06T23:28:11.702Z,25.42
2018-03-06T23:30:39.740Z,22.35
2018-03-06T23:33:07.795Z,23.85
2018-03-06T23:35:35.810Z,20.40
2018-03-06T23:38:03.882Z,22.83
2018-03-06T23:40:33.002Z,22.25
2018-03-06T23:43:01.041Z,21.67
2018-03-06T23:45:29.118Z,21.55
2018-03-06T23:47:57.133Z,19.40
2018-03-06T23:50:25.154Z,18.62
2018-03-06T23:52:53.186Z,17.67
2018-03-06T23:55:21.178Z,20.20
2018-03-06T23:57:49.230Z,17.48
